createdAt,value
2018-08-28T00:02:21.986Z,16.97
2018-08-28T00:04:51.474Z,16.78
2018-08-28T00:07:19.849Z,16.72
2018-08-28T00:09:49.132Z,16.67
2018-08-28T00:12:17.460Z,16.55
2018-08-28T00:14:46.332Z,16.59
2018-08-28T00:17:15.818Z,16.64
2018-08-28T00:19:44.809Z,16.59
2018-08-28T00:22:13.932Z,16.49
2018-08-28T00:24:42.366Z,16.53
2018-08-28T00:27:10.868Z,16.57
2018-08-28T00:29:39.217Z,16.68
2018-08-28T00:32:08.577Z,16.66
2018-08-28T00:34:37.006Z,16.68
2018-08-28T00:37:05.346Z,16.65
2018-08-28T00:39:33.720Z,16.58
2018-08-28T00:42:02.174Z,16.52
2018-08-28T00:44:30.604Z,16.53
2018-08-28T00:46:59.937Z,16.55
2018-08-28T00:49:28.281Z,16.58
2018-08-28T00:51:56.668Z,16.57
2018-08-28T00:54:25.146Z,16.52
2018-08-28T00:56:53.500Z,16.50
2018-08-28T00:59:22.641Z,16.53
2018-08-28T01:01:51.745Z,16.65
2018-08-28T01:04:20.188Z,16.62
2018-08-28T01:06:49.129Z,16.59
2018-08-28T01:09:17.546Z,16.56
2018-08-28T01:11:46.465Z,16.50
2018-08-28T01:14:15.897Z,16.46
2018-08-28T01:16:44.944Z,16.43
2018-08-28T01:19:14.445Z,16.47
2018-08-28T01:21:42.869Z,16.47
2018-08-28T01:24:11.297Z,16.50
2018-08-28T01:26:39.677Z,16.49
2018-08-28T01:29:07.996Z,16.48
2018-08-28T01:31:36.326Z,16.47
2018-08-28T01:34:04.662Z,16.46
2018-08-28T01:36:33.001Z,16.47
2018-08-28T01:39:01.401Z,16.45
2018-08-28T01:41:30.726Z,16.41
2018-08-28T01:43:59.131Z,16.47
2018-08-28T01:46:27.538Z,16.45
2018-08-28T01:48:55.874Z,16.56
2018-08-28T01:51:25.093Z,16.49
2018-08-28T01:53:53.473Z,16.48
2018-08-28T01:56:22.717Z,16.43
2018-08-28T01:58:52.940Z,16.39
2018-08-28T02:01:21.762Z,16.41
2018-08-28T02:03:50.727Z,16.44
2018-08-28T02:06:19.057Z,16.45
2018-08-28T02:08:47.496Z,16.41
2018-08-28T02:11:16.464Z,16.33
2018-08-28T02:13:46.874Z,16.30
2018-08-28T02:16:17.075Z,16.33
2018-08-28T02:18:46.368Z,16.33
2018-08-28T02:21:16.113Z,16.37
2018-08-28T02:23:46.393Z,16.26
2018-08-28T02:26:17.333Z,16.21
2018-08-28T02:28:47.797Z,16.18
2018-08-28T02:31:16.941Z,16.15
2018-08-28T02:33:46.367Z,16.12
2018-08-28T02:36:15.804Z,16.12
2018-08-28T02:38:46.152Z,16.01
2018-08-28T02:41:15.847Z,15.93
2018-08-28T02:43:45.841Z,15.95
2018-08-28T02:46:15.201Z,15.84
2018-08-28T02:48:45.726Z,15.84
2018-08-28T02:51:16.053Z,15.86
2018-08-28T02:53:45.900Z,15.76
2018-08-28T02:56:15.922Z,15.60
2018-08-28T02:58:46.097Z,15.49
2018-08-28T03:01:16.480Z,15.39
2018-08-28T03:03:46.687Z,15.46
2018-08-28T03:06:15.909Z,15.38
2018-08-28T03:08:46.176Z,15.31
2018-08-28T03:11:16.156Z,15.29
2018-08-28T03:13:46.416Z,15.22
2018-08-28T03:16:17.233Z,15.18
2018-08-28T03:18:46.347Z,15.15
2018-08-28T03:21:16.112Z,15.13
2018-08-28T03:23:46.513Z,15.03
2018-08-28T03:26:17.306Z,15.00
2018-08-28T03:28:46.720Z,15.06
2018-08-28T03:31:16.273Z,15.04
2018-08-28T03:33:46.437Z,15.04
2018-08-28T03:36:17.224Z,15.04
2018-08-28T03:38:46.586Z,15.07
2018-08-28T03:41:17.337Z,15.16
2018-08-28T03:43:47.441Z,15.15
2018-08-28T03:46:17.407Z,15.18
2018-08-28T03:48:46.825Z,15.14
2018-08-28T03:51:16.069Z,15.20
2018-08-28T03:53:46.250Z,15.15
2018-08-28T03:56:17.060Z,15.13
2018-08-28T03:58:46.420Z,15.07
2018-08-28T04:01:16.241Z,15.05
2018-08-28T04:03:45.806Z,14.96
2018-08-28T04:06:15.389Z,14.96
2018-08-28T04:08:45.813Z,14.90
2018-08-28T04:11:15.290Z,14.89
2018-08-28T04:13:44.301Z,14.96
2018-08-28T04:16:13.222Z,14.92
2018-08-28T04:18:41.545Z,14.89
2018-08-28T04:21:10.021Z,14.90
2018-08-28T04:23:38.356Z,14.91
2018-08-28T04:26:06.682Z,14.97
2018-08-28T04:28:35.041Z,14.97
2018-08-28T04:31:03.410Z,14.84
2018-08-28T04:33:31.732Z,14.84
2018-08-28T04:36:00.145Z,14.72
2018-08-28T04:38:28.560Z,14.61
2018-08-28T04:40:56.965Z,14.66
2018-08-28T04:43:25.381Z,14.66
2018-08-28T04:45:53.781Z,14.68
2018-08-28T04:48:23.111Z,14.66
2018-08-28T04:50:51.829Z,14.68
2018-08-28T04:53:20.785Z,14.77
2018-08-28T04:55:49.148Z,14.73
2018-08-28T04:58:17.482Z,14.80
2018-08-28T05:00:45.867Z,14.88
2018-08-28T05:03:14.722Z,14.96
2018-08-28T05:05:43.296Z,15.06
2018-08-28T05:08:11.617Z,15.17
2018-08-28T05:10:40.025Z,15.20
2018-08-28T05:13:08.453Z,15.21
2018-08-28T05:15:37.694Z,15.25
2018-08-28T05:18:06.064Z,15.23
2018-08-28T05:20:34.414Z,15.29
2018-08-28T05:23:02.736Z,15.20
2018-08-28T05:25:31.064Z,15.27
2018-08-28T05:28:01.292Z,15.19
2018-08-28T05:30:30.763Z,15.23
2018-08-28T05:32:59.917Z,15.27
2018-08-28T05:35:35.172Z,15.36
2018-08-28T05:38:04.562Z,15.50
2018-08-28T05:40:33.921Z,15.52
2018-08-28T05:43:03.261Z,15.53
2018-08-28T05:45:32.589Z,15.64
2018-08-28T05:48:01.974Z,15.62
2018-08-28T05:50:31.226Z,15.64
2018-08-28T05:53:00.569Z,15.66
2018-08-28T05:55:29.958Z,15.72
2018-08-28T05:57:59.349Z,15.71
2018-08-28T06:00:28.612Z,15.76
2018-08-28T06:02:58.029Z,15.85
2018-08-28T06:05:27.425Z,15.97
2018-08-28T06:07:57.469Z,15.98
2018-08-28T06:10:26.681Z,16.05
2018-08-28T06:12:56.089Z,16.07
2018-08-28T06:15:25.418Z,16.17
2018-08-28T06:17:54.801Z,16.21
2018-08-28T06:20:24.022Z,16.33
2018-08-28T06:22:54.799Z,16.36
2018-08-28T06:25:24.197Z,16.41
2018-08-28T06:27:53.146Z,16.30
2018-08-28T06:30:21.934Z,16.28
2018-08-28T06:32:50.842Z,16.25
2018-08-28T06:35:19.243Z,16.25
2018-08-28T06:37:47.586Z,16.32
2018-08-28T06:40:15.918Z,16.34
2018-08-28T06:42:45.310Z,16.39
2018-08-28T06:45:15.324Z,16.56
2018-08-28T06:47:45.297Z,16.58
2018-08-28T06:50:14.441Z,16.61
2018-08-28T06:52:43.759Z,16.78
2018-08-28T06:55:12.110Z,16.74
2018-08-28T06:57:40.789Z,16.92
2018-08-28T07:00:09.246Z,16.86
2018-08-28T07:02:37.986Z,16.99
2018-08-28T07:05:06.492Z,16.98
2018-08-28T07:07:34.889Z,17.06
2018-08-28T07:10:03.271Z,17.15
2018-08-28T07:12:31.581Z,17.21
2018-08-28T07:14:59.916Z,17.29
2018-08-28T07:17:28.904Z,17.40
2018-08-28T07:19:57.235Z,17.53
2018-08-28T07:22:26.484Z,17.50
2018-08-28T07:24:54.856Z,17.65
2018-08-28T07:27:23.205Z,17.65
2018-08-28T07:29:51.981Z,17.65
2018-08-28T07:32:20.457Z,17.77
2018-08-28T07:34:48.803Z,17.81
2018-08-28T07:37:17.172Z,17.68
2018-08-28T07:39:46.321Z,17.87
2018-08-28T07:42:15.217Z,17.98
2018-08-28T07:44:44.253Z,18.05
2018-08-28T07:47:14.336Z,17.86
2018-08-28T07:49:43.388Z,17.96
2018-08-28T07:52:11.721Z,18.12
2018-08-28T07:54:40.173Z,18.27
2018-08-28T07:57:08.587Z,18.40
2018-08-28T07:59:37.008Z,18.51
2018-08-28T08:02:05.347Z,18.60
2018-08-28T08:04:33.969Z,18.73
2018-08-28T08:07:02.309Z,18.69
2018-08-28T08:09:30.721Z,18.76
2018-08-28T08:11:59.129Z,18.79
2018-08-28T08:14:27.687Z,18.99
2018-08-28T08:16:56.123Z,19.10
2018-08-28T08:19:24.461Z,19.07
2018-08-28T08:21:54.184Z,19.10
2018-08-28T08:24:23.401Z,19.20
2018-08-28T08:26:52.404Z,19.26
2018-08-28T08:29:21.434Z,19.36
2018-08-28T08:31:49.776Z,19.66
2018-08-28T08:34:18.091Z,19.80
2018-08-28T08:36:46.427Z,19.90
2018-08-28T08:39:15.883Z,19.83
2018-08-28T08:41:45.388Z,19.94
2018-08-28T08:44:14.774Z,19.94
2018-08-28T08:46:44.193Z,20.18
2018-08-28T08:49:13.235Z,20.18
2018-08-28T08:51:41.549Z,20.24
2018-08-28T08:54:09.864Z,19.96
2018-08-28T08:56:38.457Z,19.88
2018-08-28T08:59:06.782Z,19.81
2018-08-28T09:01:35.109Z,19.79
2018-08-28T09:04:04.504Z,19.89
2018-08-28T09:06:32.834Z,19.85
2018-08-28T09:09:02.169Z,20.04
2018-08-28T09:11:31.445Z,20.44
2018-08-28T09:14:00.784Z,20.65
2018-08-28T09:16:29.097Z,20.94
2018-08-28T09:18:57.419Z,21.00
2018-08-28T09:21:25.789Z,21.17
2018-08-28T09:23:55.029Z,21.10
2018-08-28T09:26:24.273Z,21.28
2018-08-28T09:28:55.101Z,20.99
2018-08-28T09:31:25.381Z,21.30
2018-08-28T09:33:54.573Z,21.39
2018-08-28T09:36:24.881Z,21.43
2018-08-28T09:38:54.253Z,21.31
2018-08-28T09:41:24.954Z,21.23
2018-08-28T09:43:54.352Z,21.21
2018-08-28T09:46:23.613Z,21.27
2018-08-28T09:48:53.885Z,21.19
2018-08-28T09:51:24.201Z,21.22
2018-08-28T09:53:54.881Z,21.17
2018-08-28T09:56:24.146Z,21.16
2018-08-28T09:58:54.954Z,21.38
2018-08-28T10:01:29.701Z,21.58
2018-08-28T10:03:58.046Z,21.44
2018-08-28T10:06:27.384Z,21.26
2018-08-28T10:08:56.585Z,21.50
2018-08-28T10:11:25.917Z,21.73
2018-08-28T10:13:54.265Z,21.78
2018-08-28T10:16:25.045Z,21.48
2018-08-28T10:18:54.089Z,21.67
2018-08-28T10:21:23.433Z,22.07
2018-08-28T10:23:52.834Z,22.24
2018-08-28T10:26:23.036Z,22.32
2018-08-28T10:28:52.110Z,22.09
2018-08-28T10:31:21.985Z,21.90
2018-08-28T10:33:52.093Z,21.70
2018-08-28T10:36:22.377Z,21.69
2018-08-28T10:38:52.251Z,21.71
2018-08-28T10:41:21.788Z,21.97
2018-08-28T10:43:52.047Z,21.93
2018-08-28T10:46:22.708Z,22.00
2018-08-28T10:48:53.092Z,22.09
2018-08-28T10:51:23.436Z,22.26
2018-08-28T10:53:53.630Z,22.53
2018-08-28T10:56:23.989Z,22.70
2018-08-28T10:58:53.358Z,22.72
2018-08-28T11:01:23.309Z,23.13
2018-08-28T11:03:53.825Z,23.28
2018-08-28T11:06:24.141Z,22.92
2018-08-28T11:08:53.359Z,22.55
2018-08-28T11:11:23.748Z,22.75
2018-08-28T11:13:54.132Z,22.80
2018-08-28T11:16:25.014Z,22.84
2018-08-28T11:18:54.424Z,23.19
2018-08-28T11:21:23.877Z,23.27
2018-08-28T11:23:54.097Z,23.03
2018-08-28T11:26:24.336Z,22.85
2018-08-28T11:28:54.113Z,22.76
2018-08-28T11:31:23.595Z,22.63
2018-08-28T11:33:52.969Z,22.57
2018-08-28T11:36:22.632Z,22.64
2018-08-28T11:38:52.213Z,22.82
2018-08-28T11:41:20.614Z,23.16
2018-08-28T11:43:49.813Z,23.20
2018-08-28T11:46:18.134Z,23.32
2018-08-28T11:48:46.473Z,23.10
2018-08-28T11:51:15.784Z,23.05
2018-08-28T11:53:44.921Z,23.07
2018-08-28T11:56:14.250Z,23.24
2018-08-28T11:58:43.306Z,23.29
2018-08-28T12:01:11.663Z,23.33
2018-08-28T12:03:39.984Z,24.00
2018-08-28T12:06:08.308Z,23.33
2018-08-28T12:08:36.709Z,23.16
2018-08-28T12:11:05.040Z,23.22
2018-08-28T12:13:33.438Z,23.59
2018-08-28T12:16:02.625Z,23.51
2018-08-28T12:18:30.956Z,23.21
2018-08-28T12:20:59.384Z,22.98
2018-08-28T12:23:27.711Z,23.11
2018-08-28T12:25:56.048Z,23.26
2018-08-28T12:28:24.395Z,23.33
2018-08-28T12:30:53.657Z,23.40
2018-08-28T12:33:22.827Z,23.53
2018-08-28T12:35:52.178Z,23.62
2018-08-28T12:38:22.210Z,23.57
2018-08-28T12:40:52.249Z,23.68
2018-08-28T12:43:22.296Z,23.47
2018-08-28T12:45:52.153Z,23.33
2018-08-28T12:48:21.155Z,23.54
2018-08-28T12:50:50.352Z,23.75
2018-08-28T12:53:21.045Z,23.86
2018-08-28T12:55:51.079Z,24.01
2018-08-28T12:58:19.445Z,24.35
2018-08-28T13:00:47.818Z,23.94
2018-08-28T13:03:16.315Z,24.37
2018-08-28T13:05:45.345Z,24.72
2018-08-28T13:08:14.565Z,25.05
2018-08-28T13:10:43.010Z,25.03
2018-08-28T13:13:11.353Z,24.65
2018-08-28T13:15:39.959Z,24.11
2018-08-28T13:18:08.287Z,23.84
2018-08-28T13:20:36.641Z,23.51
2018-08-28T13:23:04.996Z,23.54
2018-08-28T13:25:33.654Z,23.43
2018-08-28T13:28:01.763Z,23.49
2018-08-28T13:30:30.095Z,23.48
2018-08-28T13:32:59.518Z,23.55
2018-08-28T13:35:27.841Z,23.54
2018-08-28T13:37:56.501Z,23.35
2018-08-28T13:40:24.968Z,23.36
2018-08-28T13:42:54.029Z,23.47
2018-08-28T13:45:23.213Z,23.33
2018-08-28T13:47:52.242Z,23.34
2018-08-28T13:50:21.446Z,23.49
2018-08-28T13:52:49.768Z,23.57
2018-08-28T13:55:18.121Z,23.56
2018-08-28T13:57:46.509Z,23.49
2018-08-28T14:00:15.782Z,23.41
2018-08-28T14:02:44.873Z,23.53
2018-08-28T14:05:14.282Z,23.28
2018-08-28T14:07:44.333Z,23.42
2018-08-28T14:10:14.082Z,23.34
2018-08-28T14:12:44.258Z,23.38
2018-08-28T14:15:14.276Z,23.49
2018-08-28T14:17:42.968Z,23.42
2018-08-28T14:20:11.341Z,23.48
2018-08-28T14:22:39.884Z,23.41
2018-08-28T14:25:08.312Z,23.48
2018-08-28T14:27:37.745Z,23.72
2018-08-28T14:30:06.589Z,23.97
2018-08-28T14:32:34.924Z,24.07
2018-08-28T14:35:03.272Z,24.46
2018-08-28T14:37:31.689Z,24.41
2018-08-28T14:40:00.254Z,24.50
2018-08-28T14:42:28.651Z,24.75
2018-08-28T14:44:57.280Z,24.64
2018-08-28T14:47:25.793Z,24.04
2018-08-28T14:49:54.177Z,23.91
2018-08-28T14:52:23.467Z,23.48
2018-08-28T14:54:52.288Z,23.13
2018-08-28T14:57:21.222Z,23.06
2018-08-28T14:59:49.605Z,23.24
2018-08-28T15:02:18.814Z,23.28
2018-08-28T15:04:47.253Z,23.20
2018-08-28T15:07:16.201Z,23.16
2018-08-28T15:09:45.270Z,23.19
2018-08-28T15:12:17.939Z,22.91
2018-08-28T15:14:47.791Z,22.78
2018-08-28T15:17:19.174Z,22.76
2018-08-28T15:19:48.691Z,22.63
2018-08-28T15:22:17.213Z,22.41
2018-08-28T15:24:47.444Z,22.47
2018-08-28T15:27:20.470Z,22.46
2018-08-28T15:29:50.016Z,22.48
2018-08-28T15:32:22.435Z,22.50
2018-08-28T15:34:52.250Z,22.74
2018-08-28T15:37:21.365Z,22.84
2018-08-28T15:39:51.176Z,22.96
2018-08-28T15:42:20.225Z,23.12
2018-08-28T15:44:48.844Z,23.13
2018-08-28T15:47:21.936Z,23.13
2018-08-28T15:49:52.530Z,22.98
2018-08-28T15:52:21.416Z,23.09
2018-08-28T15:54:51.471Z,22.70
2018-08-28T15:57:21.325Z,22.52
2018-08-28T15:59:50.274Z,22.30
2018-08-28T16:02:18.848Z,22.22
2018-08-28T16:04:48.905Z,22.21
2018-08-28T16:07:18.056Z,22.04
2018-08-28T16:09:46.735Z,22.09
2018-08-28T16:12:18.257Z,21.92
2018-08-28T16:14:49.129Z,21.84
2018-08-28T16:17:20.057Z,21.88
2018-08-28T16:19:52.769Z,21.70
2018-08-28T16:22:33.244Z,21.48
2018-08-28T16:25:03.778Z,21.33
2018-08-28T16:27:34.868Z,21.47
2018-08-28T16:30:05.914Z,21.37
2018-08-28T16:32:39.787Z,21.23
2018-08-28T16:35:11.774Z,21.19
2018-08-28T16:37:43.368Z,21.22
2018-08-28T16:40:17.403Z,21.16
2018-08-28T16:42:51.964Z,21.15
2018-08-28T16:45:25.250Z,21.07
2018-08-28T16:47:54.587Z,20.98
2018-08-28T16:50:24.816Z,20.97
2018-08-28T16:52:55.507Z,20.84
2018-08-28T16:55:25.235Z,20.76
2018-08-28T16:58:01.315Z,20.68
2018-08-28T17:00:34.039Z,20.65
2018-08-28T17:03:05.937Z,20.61
2018-08-28T17:05:38.153Z,20.60
2018-08-28T17:08:10.734Z,20.63
2018-08-28T17:10:41.178Z,20.53
2018-08-28T17:13:18.201Z,20.44
2018-08-28T17:15:48.338Z,20.29
2018-08-28T17:18:18.324Z,20.15
2018-08-28T17:20:54.087Z,19.98
2018-08-28T17:23:28.362Z,19.79
2018-08-28T17:26:02.215Z,19.60
2018-08-28T17:28:38.745Z,19.48
2018-08-28T17:31:10.715Z,19.26
2018-08-28T17:33:43.866Z,19.06
2018-08-28T17:36:15.940Z,18.89
2018-08-28T17:38:53.341Z,18.74
2018-08-28T17:41:25.501Z,18.60
2018-08-28T17:43:59.059Z,18.52
2018-08-28T17:46:30.855Z,18.45
2018-08-28T17:49:02.750Z,18.36
2018-08-28T17:51:42.883Z,18.25
2018-08-28T17:54:15.209Z,18.15
2018-08-28T17:56:50.339Z,18.06
2018-08-28T17:59:21.290Z,17.94
2018-08-28T18:01:58.306Z,17.85
2018-08-28T18:04:32.141Z,17.78
2018-08-28T18:07:03.311Z,17.69
2018-08-28T18:09:37.204Z,17.60
2018-08-28T18:12:08.647Z,17.52
2018-08-28T18:14:41.824Z,17.45
2018-08-28T18:17:17.582Z,17.38
2018-08-28T18:19:52.191Z,17.25
2018-08-28T18:22:28.322Z,17.14
2018-08-28T18:24:57.756Z,17.00
2018-08-28T18:27:26.991Z,16.88
2018-08-28T18:29:55.438Z,16.74
2018-08-28T18:32:24.522Z,16.67
2018-08-28T18:34:55.324Z,16.60
2018-08-28T18:37:24.585Z,16.55
2018-08-28T18:39:55.411Z,16.47
2018-08-28T18:42:25.849Z,16.41
2018-08-28T18:44:55.067Z,16.34
2018-08-28T18:47:24.289Z,16.26
2018-08-28T18:49:54.513Z,16.21
2018-08-28T18:52:23.669Z,16.23
2018-08-28T18:54:52.429Z,16.25
2018-08-28T18:57:20.850Z,16.23
2018-08-28T18:59:49.197Z,16.14
2018-08-28T19:02:17.536Z,16.12
2018-08-28T19:04:45.898Z,16.03
2018-08-28T19:07:15.517Z,15.98
2018-08-28T19:09:45.029Z,15.95
2018-08-28T19:12:13.683Z,15.85
2018-08-28T19:14:42.186Z,15.85
2018-08-28T19:17:10.561Z,15.75
2018-08-28T19:19:38.905Z,15.74
2018-08-28T19:22:07.541Z,15.59
2018-08-28T19:24:35.916Z,15.40
2018-08-28T19:27:04.266Z,15.34
2018-08-28T19:29:32.595Z,15.19
2018-08-28T19:32:00.973Z,15.14
2018-08-28T19:34:29.308Z,15.08
2018-08-28T19:36:57.669Z,14.99
2018-08-28T19:39:26.077Z,14.97
2018-08-28T19:41:54.401Z,14.89
2018-08-28T19:44:23.810Z,14.90
2018-08-28T19:46:52.523Z,14.87
2018-08-28T19:49:21.440Z,14.84
2018-08-28T19:51:50.114Z,14.78
2018-08-28T19:54:18.451Z,14.70
2018-08-28T19:56:46.928Z,14.64
2018-08-28T19:59:16.318Z,14.61
2018-08-28T20:01:46.053Z,14.56
2018-08-28T20:04:16.265Z,14.53
2018-08-28T20:06:45.415Z,14.46
2018-08-28T20:09:13.828Z,14.43
2018-08-28T20:11:42.246Z,14.35
2018-08-28T20:14:10.641Z,14.33
2018-08-28T20:16:39.081Z,14.29
2018-08-28T20:19:07.433Z,14.26
2018-08-28T20:21:35.769Z,14.20
2018-08-28T20:24:04.319Z,14.19
2018-08-28T20:26:32.692Z,14.17
2018-08-28T20:29:01.024Z,14.12
2018-08-28T20:31:30.322Z,14.05
2018-08-28T20:33:58.653Z,14.05
2018-08-28T20:36:27.957Z,14.02
2018-08-28T20:38:57.190Z,14.01
2018-08-28T20:41:26.441Z,14.01
2018-08-28T20:43:54.851Z,13.96
2018-08-28T20:46:24.141Z,13.93
2018-08-28T20:48:53.712Z,13.94
2018-08-28T20:51:24.078Z,13.94
2018-08-28T20:53:52.540Z,13.94
2018-08-28T20:56:20.969Z,13.95
2018-08-28T20:58:49.345Z,13.93
2018-08-28T21:01:18.760Z,13.84
2018-08-28T21:03:47.998Z,13.78
2018-08-28T21:06:17.418Z,13.67
2018-08-28T21:08:47.217Z,13.59
2018-08-28T21:11:16.423Z,13.52
2018-08-28T21:13:46.952Z,13.47
2018-08-28T21:16:17.245Z,13.41
2018-08-28T21:18:47.535Z,13.36
2018-08-28T21:21:16.781Z,13.27
2018-08-28T21:23:46.113Z,13.30
2018-08-28T21:26:16.456Z,13.33
2018-08-28T21:28:46.841Z,13.35
2018-08-28T21:31:16.133Z,13.38
2018-08-28T21:33:46.972Z,13.35
2018-08-28T21:36:16.325Z,13.32
2018-08-28T21:38:45.763Z,13.25
2018-08-28T21:41:16.493Z,13.20
2018-08-28T21:43:46.789Z,13.17
2018-08-28T21:46:16.486Z,13.16
2018-08-28T21:48:46.694Z,13.13
2018-08-28T21:51:16.144Z,13.08
2018-08-28T21:53:45.517Z,13.11
2018-08-28T21:56:15.676Z,13.08
2018-08-28T21:58:45.884Z,13.12
2018-08-28T22:01:16.705Z,13.11
2018-08-28T22:03:46.073Z,13.02
2018-08-28T22:06:22.349Z,13.00
2018-08-28T22:08:51.677Z,12.96
2018-08-28T22:11:21.534Z,12.89
2018-08-28T22:13:51.801Z,12.86
2018-08-28T22:16:21.516Z,12.89
2018-08-28T22:18:51.463Z,12.92
2018-08-28T22:21:19.864Z,12.92
2018-08-28T22:23:48.282Z,12.85
2018-08-28T22:26:17.061Z,12.77
2018-08-28T22:28:46.360Z,12.68
2018-08-28T22:31:15.417Z,12.69
2018-08-28T22:33:44.380Z,12.68
2018-08-28T22:36:13.491Z,12.58
2018-08-28T22:38:41.871Z,12.55
2018-08-28T22:41:10.217Z,12.52
2018-08-28T22:43:38.549Z,12.52
2018-08-28T22:46:06.902Z,12.56
2018-08-28T22:48:35.305Z,12.52
2018-08-28T22:51:03.637Z,12.52
2018-08-28T22:53:32.337Z,12.53
2018-08-28T22:56:01.501Z,12.45
2018-08-28T22:58:30.757Z,12.49
2018-08-28T23:00:59.195Z,12.41
2018-08-28T23:03:28.833Z,12.34
2018-08-28T23:05:58.152Z,12.35
2018-08-28T23:08:27.373Z,12.39
2018-08-28T23:10:56.567Z,12.35
2018-08-28T23:13:25.757Z,12.28
2018-08-28T23:15:55.037Z,12.23
2018-08-28T23:18:24.272Z,12.25
2018-08-28T23:20:54.576Z,12.28
2018-08-28T23:23:25.500Z,12.24
2018-08-28T23:25:54.713Z,12.28
2018-08-28T23:28:24.244Z,12.29
2018-08-28T23:30:54.664Z,12.26
2018-08-28T23:33:25.445Z,12.21
2018-08-28T23:35:54.669Z,12.19
2018-08-28T23:38:24.253Z,12.15
2018-08-28T23:40:54.573Z,12.13
2018-08-28T23:43:23.768Z,12.11
2018-08-28T23:45:53.649Z,12.16
2018-08-28T23:48:24.498Z,12.14
2018-08-28T23:50:54.644Z,12.07
2018-08-28T23:53:24.492Z,11.98
2018-08-28T23:55:53.864Z,11.89
2018-08-28T23:58:24.257Z,11.83
